createdAt,value
2019-04-14T00:01:41.247Z,99451.50
2019-04-14T00:04:14.640Z,99443.23
2019-04-14T00:06:46.427Z,99448.66
2019-04-14T00:09:18.987Z,99444.68
2019-04-14T00:11:50.738Z,99435.23
2019-04-14T00:14:22.903Z,99436.98
2019-04-14T00:16:55.327Z,99433.80
2019-04-14T00:19:28.343Z,99424.05
2019-04-14T00:22:03.071Z,99429.97
2019-04-14T00:24:35.736Z,99430.92
2019-04-14T00:27:08.646Z,99429.09
2019-04-14T00:29:41.424Z,99429.41
2019-04-14T00:32:13.996Z,99424.61
2019-04-14T00:34:53.127Z,99423.48
2019-04-14T00:37:27.355Z,99429.14
2019-04-14T00:40:04.034Z,99423.86
2019-04-14T00:42:37.129Z,99425.25
2019-04-14T00:45:11.205Z,99419.09
2019-04-14T00:47:54.766Z,99420.83
2019-04-14T00:50:18.949Z,99419.66
2019-04-14T00:52:50.509Z,99412.45
2019-04-14T00:55:22.592Z,99413.55
2019-04-14T00:57:55.132Z,99412.83
2019-04-14T01:00:27.599Z,99408.29
2019-04-14T01:03:00.183Z,99411.82
2019-04-14T01:05:34.194Z,99411.33
2019-04-14T01:08:05.476Z,99416.04
2019-04-14T01:10:36.989Z,99412.64
2019-04-14T01:13:11.103Z,99407.22
2019-04-14T01:15:51.544Z,99409.05
2019-04-14T01:18:15.068Z,99407.09
2019-04-14T01:20:47.105Z,99409.25
2019-04-14T01:23:19.352Z,99408.20
2019-04-14T01:25:51.996Z,99421.77
2019-04-14T01:28:24.375Z,99417.91
2019-04-14T01:30:56.606Z,99422.80
2019-04-14T01:33:29.298Z,99419.56
2019-04-14T01:36:01.723Z,99408.44
2019-04-14T01:38:34.351Z,99412.64
2019-04-14T01:41:06.451Z,99416.36
2019-04-14T01:43:38.559Z,99402.78
2019-04-14T01:46:16.600Z,99398.91
2019-04-14T01:48:43.392Z,99384.66
2019-04-14T01:51:17.914Z,99389.27
2019-04-14T01:53:53.859Z,99380.78
2019-04-14T01:56:42.807Z,99378.84
2019-04-14T01:59:15.285Z,99384.08
2019-04-14T02:01:48.306Z,99395.20
2019-04-14T02:04:20.337Z,99384.56
2019-04-14T02:06:52.698Z,99392.30
2019-04-14T02:09:25.145Z,99386.67
2019-04-14T02:11:57.471Z,99380.56
2019-04-14T02:14:30.151Z,99377.20
2019-04-14T02:17:04.226Z,99376.06
2019-04-14T02:19:34.961Z,99378.30
2019-04-14T02:22:07.357Z,99382.41
2019-04-14T02:24:39.563Z,99377.68
2019-04-14T02:27:12.082Z,99370.80
2019-04-14T02:29:43.568Z,99371.01
2019-04-14T02:32:45.217Z,99371.38
2019-04-14T02:37:58.096Z,99373.17
2019-04-14T02:40:30.302Z,99379.53
2019-04-14T02:45:52.019Z,99388.83
2019-04-14T02:50:32.370Z,99379.45
2019-04-14T02:55:42.521Z,99389.02
2019-04-14T02:58:24.626Z,99387.02
2019-04-14T03:00:53.668Z,99374.41
2019-04-14T03:03:27.883Z,99372.30
2019-04-14T03:08:39.783Z,99364.80
2019-04-14T03:11:01.588Z,99368.95
2019-04-14T03:13:35.259Z,99371.11
2019-04-14T03:24:03.153Z,99387.02
2019-04-14T03:26:44.739Z,99394.88
2019-04-14T03:32:14.209Z,99396.14
2019-04-14T03:37:30.672Z,99381.28
2019-04-14T03:39:38.826Z,99387.31
2019-04-14T03:44:49.276Z,99379.81
2019-04-14T03:47:19.481Z,99388.31
2019-04-14T03:49:54.330Z,99382.91
2019-04-14T03:52:33.239Z,99383.20
2019-04-14T03:54:52.490Z,99388.64
2019-04-14T03:57:06.291Z,99389.66
2019-04-14T03:59:39.226Z,99392.27
2019-04-14T04:02:11.811Z,99389.95
2019-04-14T04:04:44.466Z,99389.95
2019-04-14T04:07:17.098Z,99392.34
2019-04-14T04:09:50.363Z,99394.17
2019-04-14T04:12:22.582Z,99395.55
2019-04-14T04:14:55.215Z,99395.75
2019-04-14T04:17:38.735Z,99394.66
2019-04-14T04:20:17.770Z,99392.83
2019-04-14T04:23:00.843Z,99392.86
2019-04-14T04:25:37.839Z,99392.70
2019-04-14T04:28:23.250Z,99397.91
2019-04-14T04:30:56.443Z,99396.23
2019-04-14T04:33:32.722Z,99396.20
2019-04-14T04:36:11.816Z,99393.92
2019-04-14T04:38:46.334Z,99397.66
2019-04-14T04:41:18.905Z,99403.45
2019-04-14T04:43:51.732Z,99394.30
2019-04-14T04:46:24.336Z,99385.42
2019-04-14T04:49:04.499Z,99383.84
2019-04-14T04:51:29.076Z,99382.81
2019-04-14T04:54:01.713Z,99382.78
2019-04-14T04:56:34.080Z,99381.56
2019-04-14T04:59:05.848Z,99389.28
2019-04-14T05:01:38.662Z,99386.84
2019-04-14T05:04:11.105Z,99376.42
2019-04-14T05:07:01.327Z,99387.69
2019-04-14T05:09:38.819Z,99382.92
2019-04-14T05:12:13.191Z,99392.73
2019-04-14T05:14:46.598Z,99391.96
2019-04-14T05:17:19.785Z,99387.69
2019-04-14T05:19:51.923Z,99385.94
2019-04-14T05:22:24.619Z,99388.88
2019-04-14T05:24:57.192Z,99390.28
2019-04-14T05:27:29.776Z,99391.48
2019-04-14T05:30:02.689Z,99385.30
2019-04-14T05:32:34.717Z,99385.88
2019-04-14T05:35:07.621Z,99378.98
2019-04-14T05:37:40.089Z,99376.42
2019-04-14T05:40:12.437Z,99362.59
2019-04-14T05:42:45.070Z,99365.03
2019-04-14T05:45:17.677Z,99369.50
2019-04-14T05:47:50.189Z,99367.63
2019-04-14T05:50:22.685Z,99366.41
2019-04-14T05:52:54.152Z,99369.91
2019-04-14T05:55:26.286Z,99375.45
2019-04-14T05:57:59.104Z,99381.56
2019-04-14T06:00:32.083Z,99377.13
2019-04-14T06:03:03.843Z,99377.28
2019-04-14T06:05:36.156Z,99385.30
2019-04-14T06:08:07.838Z,99397.30
2019-04-14T06:10:39.599Z,99402.67
2019-04-14T06:13:11.870Z,99407.41
2019-04-14T06:15:43.615Z,99403.41
2019-04-14T06:18:15.374Z,99397.14
2019-04-14T06:20:47.235Z,99396.56
2019-04-14T06:23:18.789Z,99404.50
2019-04-14T06:25:50.437Z,99397.66
2019-04-14T06:28:22.093Z,99403.48
2019-04-14T06:30:55.487Z,99403.89
2019-04-14T06:33:28.617Z,99401.58
2019-04-14T06:36:19.903Z,99406.37
2019-04-14T06:38:53.465Z,99403.70
2019-04-14T06:41:25.048Z,99408.33
2019-04-14T06:43:56.842Z,99408.55
2019-04-14T06:46:28.388Z,99410.77
2019-04-14T06:49:00.031Z,99420.61
2019-04-14T06:51:31.669Z,99413.15
2019-04-14T06:54:03.637Z,99415.55
2019-04-14T06:56:35.285Z,99413.73
2019-04-14T06:59:07.150Z,99407.86
2019-04-14T07:01:39.082Z,99398.75
2019-04-14T07:04:10.966Z,99384.25
2019-04-14T07:06:44.461Z,99380.95
2019-04-14T07:09:16.635Z,99375.34
2019-04-14T07:11:48.293Z,99391.05
2019-04-14T07:14:20.153Z,99393.59
2019-04-14T07:16:51.935Z,99385.75
2019-04-14T07:19:23.662Z,99388.94
2019-04-14T07:21:55.593Z,99391.33
2019-04-14T07:24:27.508Z,99390.88
2019-04-14T07:26:59.059Z,99381.13
2019-04-14T07:29:32.437Z,99383.55
2019-04-14T07:32:22.417Z,99378.67
2019-04-14T07:35:01.753Z,99370.16
2019-04-14T07:37:52.461Z,99369.34
2019-04-14T07:40:42.428Z,99365.33
2019-04-14T07:43:21.460Z,99370.41
2019-04-14T07:45:54.858Z,99369.83
2019-04-14T07:48:28.046Z,99367.26
2019-04-14T07:51:01.237Z,99367.75
2019-04-14T07:53:46.613Z,99366.26
2019-04-14T07:56:20.014Z,99368.56
2019-04-14T08:00:44.877Z,99370.38
2019-04-14T21:25:36.117Z,99344.30
2019-04-14T21:28:25.718Z,99349.94
2019-04-14T21:31:15.157Z,99345.05
2019-04-14T21:33:54.697Z,99346.59
2019-04-14T21:36:40.484Z,99347.22
2019-04-14T21:39:30.270Z,99345.23
2019-04-14T21:42:02.250Z,99338.95
2019-04-14T21:44:33.835Z,99338.52
2019-04-14T21:47:05.875Z,99331.92
2019-04-14T21:49:37.701Z,99334.98
2019-04-14T21:52:20.010Z,99332.36
2019-04-14T21:54:51.787Z,99333.42
2019-04-14T21:57:28.047Z,99327.47
2019-04-14T22:00:19.958Z,99323.03
2019-04-14T22:03:13.577Z,99330.36
2019-04-14T22:05:46.840Z,99330.97
2019-04-14T22:08:25.975Z,99330.52
2019-04-14T22:11:06.402Z,99329.45
2019-04-14T22:13:38.194Z,99324.23
2019-04-14T22:16:09.823Z,99321.47
2019-04-14T22:18:41.644Z,99313.03
2019-04-14T22:21:13.547Z,99318.25
2019-04-14T22:23:45.323Z,99319.94
2019-04-14T22:26:25.982Z,99315.66
2019-04-14T22:28:50.553Z,99312.73
2019-04-14T22:31:22.333Z,99309.54
2019-04-14T22:33:54.092Z,99308.47
2019-04-14T22:36:25.936Z,99311.98
2019-04-14T22:38:57.735Z,99315.98
2019-04-14T22:41:29.445Z,99314.73
2019-04-14T22:44:01.204Z,99311.84
2019-04-14T22:46:35.626Z,99306.47
2019-04-14T22:49:07.417Z,99301.59
2019-04-14T22:51:39.365Z,99307.71
2019-04-14T22:54:11.122Z,99306.63
2019-04-14T22:56:42.773Z,99307.41
2019-04-14T22:59:14.637Z,99305.25
2019-04-14T23:01:50.780Z,99300.05
2019-04-14T23:04:36.974Z,99295.44
2019-04-14T23:07:13.132Z,99302.50
2019-04-14T23:09:46.627Z,99299.58
2019-04-14T23:12:25.960Z,99290.56
2019-04-14T23:15:01.971Z,99295.30
2019-04-14T23:17:38.090Z,99290.56
2019-04-14T23:20:14.563Z,99294.39
2019-04-14T23:23:00.229Z,99292.85
2019-04-14T23:25:32.714Z,99289.02
2019-04-14T23:28:04.560Z,99287.03
2019-04-14T23:30:36.494Z,99276.62
2019-04-14T23:33:08.114Z,99273.09
2019-04-14T23:35:39.835Z,99264.21
2019-04-14T23:38:11.698Z,99273.55
2019-04-14T23:40:43.312Z,99276.78
2019-04-14T23:43:15.124Z,99271.41
2019-04-14T23:45:46.975Z,99276.78
2019-04-14T23:48:18.927Z,99273.25
2019-04-14T23:50:52.148Z,99273.69
2019-04-14T23:53:23.564Z,99283.80
2019-04-14T23:55:55.658Z,99275.41
2019-04-14T23:58:28.515Z,99283.20
